Kemmerer Municipal Airport


Codes: KEMM/EMM
Name: Kemmerer Municipal Airport
City: Kemmerer
Country: United States
Elevation: 7285 ft.
Wikipedia:

Photos at Kemmerer Municipal Airport


   Photos courtesy of SpottingLog. You can add your own sightings and photos by signing up for a free trial today.



No photos found.

Weather at Kemmerer Municipal Airport


Time (UTC)DescriptionTempratureWindCloud coverageVisibilityPressureHumidity
23-May-2024 18:00Light Snow3°C25 mph, W40%10000m1014hPa46%
23-May-2024 21:00Light Rain4°C27 mph, W59%10000m1013hPa45%
24-May-2024 00:00Broken Clouds5°C27 mph, NW79%10000m1013hPa45%
24-May-2024 03:00Scattered Clouds3°C13 mph, NW50%10000m1014hPa61%
24-May-2024 06:00Scattered Clouds1°C7 mph, W31%10000m1016hPa66%
24-May-2024 09:00Clear Sky0°C4 mph, W0%10000m1016hPa69%
24-May-2024 12:00Clear Sky-1°C4 mph, W0%10000m1016hPa72%
24-May-2024 15:00Clear Sky6°C4 mph, SW0%10000m1013hPa44%
24-May-2024 18:00Clear Sky11°C9 mph, SW0%10000m1009hPa27%
24-May-2024 21:00Broken Clouds14°C16 mph, W75%10000m1005hPa22%
25-May-2024 00:00Overcast Clouds13°C18 mph, W85%10000m1005hPa30%
25-May-2024 03:00Overcast Clouds8°C16 mph, SW100%10000m1006hPa60%
25-May-2024 06:00Overcast Clouds6°C4 mph, S99%10000m1006hPa80%
25-May-2024 09:00Overcast Clouds6°C4 mph, SW100%10000m1004hPa78%
25-May-2024 12:00Overcast Clouds4°C2 mph, W99%10000m1004hPa87%
25-May-2024 15:00Light Rain4°C9 mph, N99%0m1006hPa95%
25-May-2024 18:00Light Rain10°C16 mph, W95%10000m1004hPa57%
25-May-2024 21:00Light Rain11°C22 mph, W92%10000m1004hPa47%
26-May-2024 00:00Light Rain10°C25 mph, W79%10000m1006hPa54%
26-May-2024 03:00Light Rain5°C9 mph, NW46%10000m1009hPa83%
26-May-2024 06:00Scattered Clouds5°C4 mph, SW43%10000m1010hPa80%
26-May-2024 09:00Overcast Clouds4°C7 mph, SW85%10000m1010hPa79%
26-May-2024 12:00Scattered Clouds2°C11 mph, W49%10000m1012hPa81%
26-May-2024 15:00Clear Sky6°C29 mph, W0%10000m1012hPa46%
26-May-2024 18:00Clear Sky9°C27 mph, NW0%10000m1013hPa32%
26-May-2024 21:00Clear Sky12°C22 mph, NW0%10000m1014hPa31%
27-May-2024 00:00Clear Sky11°C22 mph, NW1%10000m1015hPa34%
27-May-2024 03:00Clear Sky7°C9 mph, NW0%10000m1018hPa53%
27-May-2024 06:00Clear Sky5°C4 mph, W0%10000m1020hPa59%
27-May-2024 09:00Clear Sky4°C4 mph, NW0%10000m1020hPa59%
27-May-2024 12:00Clear Sky2°C4 mph, NW1%10000m1021hPa65%
27-May-2024 15:00Clear Sky10°C4 mph, W2%10000m1020hPa38%
27-May-2024 18:00Clear Sky15°C11 mph, W1%10000m1018hPa28%
27-May-2024 21:00Clear Sky18°C13 mph, NW0%10000m1016hPa28%
28-May-2024 00:00Clear Sky17°C13 mph, NW0%10000m1016hPa28%
28-May-2024 03:00Clear Sky12°C7 mph, NW1%10000m1018hPa48%
28-May-2024 06:00Clear Sky10°C4 mph, NW3%10000m1019hPa55%
28-May-2024 09:00Clear Sky8°C2 mph, NW0%10000m1019hPa58%
28-May-2024 12:00Clear Sky7°C2 mph, SE0%10000m1019hPa61%
28-May-2024 15:00Clear Sky13°C4 mph, SE0%10000m1019hPa43%